Time;durP1;ratioP1;P1;durP2;ratioP2;P2;SDS_P1;SDS_P2;PMS_P1;PMS_P2;Temp;Humidity;BMP_temperature;BMP_pressure;BME280_temperature;BME280_humidity;BME280_pressure;Samples;Min_cycle;Max_cycle;Signal;HPM_P1;HPM_P2
2023/04/08 00:00:20;;;;;;;26.50;17.53;;;5.70;90.80;;;;;;4992690;28;20592;-90
2023/04/08 00:02:46;;;;;;;25.13;16.63;;;5.70;90.80;;;;;;4993664;28;20172;-90
2023/04/08 00:05:12;;;;;;;23.90;17.93;;;5.80;90.70;;;;;;4992149;28;20271;-90
2023/04/08 00:07:37;;;;;;;22.87;18.00;;;5.70;90.70;;;;;;4992190;28;20651;-90
2023/04/08 00:10:03;;;;;;;27.13;17.80;;;5.80;90.70;;;;;;4992310;28;20308;-90
2023/04/08 00:12:29;;;;;;;25.80;17.13;;;5.70;90.70;;;;;;4993237;28;20694;-90
2023/04/08 00:14:54;;;;;;;29.37;16.77;;;5.70;90.70;;;;;;4993381;28;20193;-90
2023/04/08 00:17:20;;;;;;;20.47;15.07;;;5.80;90.60;;;;;;4992185;28;20202;-90
2023/04/08 00:19:46;;;;;;;25.60;17.47;;;5.80;90.60;;;;;;4993352;28;20177;-90
2023/04/08 00:22:11;;;;;;;24.07;17.27;;;5.80;90.60;;;;;;4993259;28;20237;-90
2023/04/08 00:24:37;;;;;;;23.30;16.37;;;5.80;90.60;;;;;;4994257;28;20184;-90
2023/04/08 00:27:03;;;;;;;23.80;16.47;;;5.80;90.60;;;;;;4995638;28;20177;-90
2023/04/08 00:29:28;;;;;;;29.97;17.43;;;5.80;90.60;;;;;;4995547;28;20215;-91
2023/04/08 00:31:54;;;;;;;23.13;16.40;;;5.80;90.60;;;;;;4995569;28;20718;-90
2023/04/08 00:34:20;;;;;;;24.27;18.40;;;5.80;90.60;;;;;;4997075;28;20180;-90
2023/04/08 00:36:46;;;;;;;23.83;15.53;;;5.80;90.60;;;;;;4995376;28;20708;-90
2023/04/08 00:39:12;;;;;;;27.70;17.60;;;5.80;90.60;;;;;;4996012;28;20177;-90
2023/04/08 00:41:38;;;;;;;23.63;16.77;;;5.80;90.50;;;;;;4997475;28;20316;-90
2023/04/08 00:44:04;;;;;;;26.73;17.17;;;5.80;90.50;;;;;;4995736;28;20237;-90
2023/04/08 00:46:35;;;;;;;21.23;16.97;;;5.80;90.50;;;;;;4995422;28;20185;-89
2023/04/08 00:49:01;;;;;;;26.77;17.80;;;5.80;90.50;;;;;;4997105;28;20282;-89
2023/04/08 00:51:28;;;;;;;27.97;17.60;;;5.80;90.50;;;;;;4996387;28;20205;-89
2023/04/08 00:53:54;;;;;;;27.33;18.17;;;5.80;90.50;;;;;;4996607;28;20643;-90
2023/04/08 00:56:21;;;;;;;26.70;18.77;;;5.80;90.50;;;;;;4996673;28;20260;-90
2023/04/08 00:58:46;;;;;;;28.57;17.63;;;5.80;90.50;;;;;;4995098;28;20201;-90
2023/04/08 01:01:42;;;;;;;24.77;19.10;;;5.90;90.50;;;;;;4995917;28;20285;-90
2023/04/08 01:04:30;;;;;;;31.73;19.43;;;5.80;90.50;;;;;;4995047;28;20664;-90
2023/04/08 01:07:02;;;;;;;26.90;19.50;;;5.90;90.50;;;;;;4995194;28;20530;-91
2023/04/08 01:09:32;;;;;;;24.70;16.60;;;5.90;90.50;;;;;;4995015;28;20171;-90
2023/04/08 01:12:02;;;;;;;28.57;18.97;;;5.90;90.50;;;;;;4994781;28;20196;-90
2023/04/08 01:14:29;;;;;;;27.53;18.73;;;5.90;90.40;;;;;;4996133;28;20165;-90
2023/04/08 01:16:57;;;;;;;33.63;19.27;;;5.80;90.40;;;;;;4994817;28;20182;-90
2023/04/08 01:19:29;;;;;;;30.30;19.90;;;5.90;90.40;;;;;;4995898;28;20177;-90
2023/04/08 01:22:18;;;;;;;29.10;19.57;;;5.90;90.40;;;;;;4994637;28;20201;-90
2023/04/08 01:24:46;;;;;;;29.83;19.70;;;5.90;90.40;;;;;;4994880;28;20169;-90
2023/04/08 01:27:15;;;;;;;31.33;19.87;;;5.90;90.30;;;;;;4995826;28;20181;-90
2023/04/08 01:29:42;;;;;;;30.53;20.87;;;5.90;90.30;;;;;;4995272;28;20216;-90
2023/04/08 01:32:09;;;;;;;27.77;20.23;;;5.90;90.40;;;;;;4994469;28;20201;-90
2023/04/08 01:34:37;;;;;;;25.97;20.03;;;5.90;90.30;;;;;;4994395;28;20182;-90
2023/04/08 01:37:04;;;;;;;31.13;18.80;;;5.90;90.40;;;;;;4995864;28;20168;-90
2023/04/08 01:39:30;;;;;;;32.10;19.93;;;5.90;90.40;;;;;;4994331;28;20555;-90
2023/04/08 01:41:58;;;;;;;26.83;18.67;;;5.90;90.30;;;;;;4995614;28;20210;-90
2023/04/08 01:44:25;;;;;;;32.73;22.10;;;5.90;90.30;;;;;;4994282;28;20200;-90
2023/04/08 01:46:52;;;;;;;32.10;20.30;;;5.90;90.20;;;;;;4994296;28;20188;-90
2023/04/08 01:49:19;;;;;;;31.97;21.30;;;5.90;90.20;;;;;;4994189;28;20175;-90
2023/04/08 01:51:46;;;;;;;27.73;19.93;;;6.00;90.10;;;;;;4994010;28;20301;-90
2023/04/08 01:54:12;;;;;;;32.80;20.13;;;6.00;90.10;;;;;;4994181;28;20651;-90
2023/04/08 01:56:41;;;;;;;31.30;19.17;;;6.00;90.10;;;;;;4995378;28;20170;-90
2023/04/08 01:59:11;;;;;;;25.47;18.57;;;6.00;90.10;;;;;;4994069;28;20212;-90
2023/04/08 02:01:37;;;;;;;28.37;18.40;;;5.90;90.10;;;;;;4993909;28;20240;-90
2023/04/08 02:04:03;;;;;;;30.87;20.77;;;5.90;90.10;;;;;;4993918;28;20224;-90
2023/04/08 02:06:30;;;;;;;27.20;21.80;;;5.90;90.10;;;;;;4993814;28;20643;-90
2023/04/08 02:08:58;;;;;;;30.60;20.73;;;6.00;90.20;;;;;;4995330;28;20728;-90
2023/04/08 02:11:24;;;;;;;32.47;22.63;;;5.90;90.20;;;;;;4993692;28;20283;-90
2023/04/08 02:13:50;;;;;;;25.87;20.90;;;5.90;90.30;;;;;;4993665;28;20208;-90
2023/04/08 02:16:22;;;;;;;32.03;22.63;;;5.90;90.30;;;;;;4993540;28;20660;-90
2023/04/08 02:19:13;;;;;;;29.57;21.57;;;6.00;90.30;;;;;;4994841;28;20251;-90
2023/04/08 02:21:45;;;;;;;30.20;20.80;;;5.90;90.20;;;;;;4994721;28;20190;-90
2023/04/08 02:24:14;;;;;;;32.10;20.17;;;5.90;90.30;;;;;;4994804;28;20161;-90
2023/04/08 02:26:42;;;;;;;28.40;21.33;;;5.90;90.20;;;;;;4994777;28;20174;-90
2023/04/08 02:29:12;;;;;;;27.27;21.13;;;5.90;90.20;;;;;;4993311;28;20285;-90
2023/04/08 02:31:41;;;;;;;34.70;22.50;;;5.90;90.30;;;;;;4993315;28;20208;-91
2023/04/08 02:34:09;;;;;;;37.83;24.80;;;5.90;90.40;;;;;;4993292;28;20539;-90
2023/04/08 02:36:35;;;;;;;36.00;24.87;;;5.90;90.40;;;;;;4994487;28;20173;-90
2023/04/08 02:39:01;;;;;;;38.80;26.13;;;5.90;90.40;;;;;;4993241;28;20684;-90
2023/04/08 02:41:29;;;;;;;39.83;26.63;;;5.90;90.40;;;;;;5034972;22;20264;-90
2023/04/08 02:43:54;;;;;;;36.27;24.30;;;5.90;90.40;;;;;;4993105;28;20203;-91
2023/04/08 02:46:20;;;;;;;38.97;24.83;;;5.90;90.50;;;;;;4992675;28;20188;-90
2023/04/08 02:48:46;;;;;;;38.37;25.00;;;5.80;90.50;;;;;;4993944;28;20536;-90
2023/04/08 02:51:11;;;;;;;43.10;26.00;;;5.80;90.50;;;;;;4994450;28;20248;-90
2023/04/08 02:53:37;;;;;;;38.90;24.40;;;5.70;90.60;;;;;;4994224;28;20264;-90
2023/04/08 02:56:02;;;;;;;32.83;22.60;;;5.70;90.60;;;;;;4992908;28;20207;-90
2023/04/08 02:58:28;;;;;;;35.33;20.17;;;5.70;90.70;;;;;;4994158;28;20280;-90
2023/04/08 03:00:54;;;;;;;33.33;21.23;;;5.60;90.60;;;;;;4992914;28;20576;-90
2023/04/08 03:03:26;;;;;;;28.47;19.97;;;5.70;90.60;;;;;;4992912;28;20714;-90
2023/04/08 03:05:52;;;;;;;33.93;22.70;;;5.80;90.60;;;;;;4992846;28;20200;-90
2023/04/08 03:08:17;;;;;;;35.73;23.27;;;5.80;90.60;;;;;;4992834;28;20209;-90
2023/04/08 03:10:43;;;;;;;31.70;21.80;;;5.70;90.60;;;;;;4993862;28;20244;-90
2023/04/08 03:13:08;;;;;;;25.83;19.10;;;5.80;90.60;;;;;;4992887;28;20235;-91
2023/04/08 03:15:34;;;;;;;28.67;20.03;;;5.70;90.50;;;;;;4993859;28;20189;-90
2023/04/08 03:17:59;;;;;;;24.27;19.53;;;5.70;90.40;;;;;;4992599;28;20240;-90
2023/04/08 03:20:25;;;;;;;28.60;20.53;;;5.70;90.40;;;;;;4992650;28;20182;-90
2023/04/08 03:22:51;;;;;;;28.70;19.93;;;5.70;90.30;;;;;;4992633;28;20207;-90
2023/04/08 03:25:17;;;;;;;31.53;21.90;;;5.70;90.30;;;;;;4994042;28;20172;-90
2023/04/08 03:27:42;;;;;;;31.60;22.80;;;5.70;90.40;;;;;;4993815;28;20180;-90
2023/04/08 03:30:08;;;;;;;31.57;22.13;;;5.70;90.40;;;;;;4993684;28;20658;-90
2023/04/08 03:32:34;;;;;;;34.33;21.17;;;5.70;90.40;;;;;;4992409;28;20197;-90
2023/04/08 03:35:00;;;;;;;19.63;13.70;;;5.70;90.40;;;;;;4992633;28;20541;-90
2023/04/08 03:37:25;;;;;;;25.67;17.83;;;5.70;90.40;;;;;;4993635;28;20560;-90
2023/04/08 03:39:51;;;;;;;23.53;18.20;;;5.60;90.30;;;;;;4992554;28;20538;-90
2023/04/08 03:42:17;;;;;;;22.47;17.03;;;5.60;90.20;;;;;;4993877;28;20761;-90
2023/04/08 03:44:42;;;;;;;25.03;17.37;;;5.60;90.20;;;;;;4992572;28;20209;-89
2023/04/08 03:47:08;;;;;;;24.67;17.23;;;5.60;90.30;;;;;;4992462;28;20213;-90
2023/04/08 03:49:34;;;;;;;25.00;19.00;;;5.60;90.30;;;;;;4992402;28;20262;-90
2023/04/08 03:51:59;;;;;;;28.93;20.63;;;5.60;90.30;;;;;;4993622;28;20615;-90
2023/04/08 03:54:25;;;;;;;31.40;22.73;;;5.60;90.30;;;;;;4993586;28;20180;-90
2023/04/08 03:56:50;;;;;;;28.40;20.93;;;5.60;90.40;;;;;;4992415;28;20177;-90
2023/04/08 03:59:16;;;;;;;23.30;19.83;;;5.60;90.40;;;;;;4994248;28;20220;-90
2023/04/08 04:01:41;;;;;;;28.33;20.47;;;5.60;90.40;;;;;;4997459;28;20203;-90
2023/04/08 04:04:07;;;;;;;30.03;22.70;;;5.70;90.40;;;;;;4997524;28;20177;-90
2023/04/08 04:06:32;;;;;;;35.40;20.73;;;5.60;90.40;;;;;;4995993;28;20183;-90
2023/04/08 04:08:58;;;;;;;29.20;22.23;;;5.70;90.40;;;;;;4997257;28;20623;-90
2023/04/08 04:11:23;;;;;;;25.63;19.27;;;5.70;90.40;;;;;;4997063;28;20202;-90
2023/04/08 04:13:49;;;;;;;25.37;20.63;;;5.60;90.40;;;;;;4997268;28;20215;-90
2023/04/08 04:16:14;;;;;;;28.77;21.60;;;5.60;90.40;;;;;;4995845;28;20207;-90
2023/04/08 04:18:40;;;;;;;32.77;22.60;;;5.60;90.40;;;;;;4995686;28;20272;-90
2023/04/08 04:21:09;;;;;;;30.67;22.77;;;5.60;90.40;;;;;;4996952;28;20204;-90
2023/04/08 04:23:34;;;;;;;31.70;22.50;;;5.60;90.40;;;;;;4996989;28;20253;-90
2023/04/08 04:26:00;;;;;;;38.37;24.40;;;5.60;90.50;;;;;;4996908;28;20634;-90
2023/04/08 04:28:25;;;;;;;36.07;24.00;;;5.60;90.50;;;;;;4996868;28;20186;-90
2023/04/08 04:30:51;;;;;;;34.23;23.87;;;5.50;90.60;;;;;;4996747;28;20688;-90
2023/04/08 04:33:16;;;;;;;38.83;26.90;;;5.50;90.60;;;;;;4995625;28;20560;-90
2023/04/08 04:35:42;;;;;;;35.33;26.30;;;5.60;90.70;;;;;;4995594;28;20184;-90
2023/04/08 04:38:11;;;;;;;32.00;25.60;;;5.60;90.70;;;;;;4995510;28;20199;-90
2023/04/08 04:40:37;;;;;;;35.10;26.13;;;5.50;90.70;;;;;;4995471;28;20636;-90
2023/04/08 04:43:03;;;;;;;40.00;26.50;;;5.60;90.80;;;;;;4995475;28;20192;-90
2023/04/08 04:45:29;;;;;;;39.03;27.33;;;5.60;90.80;;;;;;4996554;28;20181;-90
2023/04/08 04:47:54;;;;;;;40.40;26.67;;;5.60;90.90;;;;;;4996825;28;20218;-90
2023/04/08 04:50:20;;;;;;;38.70;26.50;;;5.60;90.90;;;;;;4995347;28;20186;-90
2023/04/08 04:52:46;;;;;;;38.10;27.80;;;5.50;90.90;;;;;;4996329;28;20356;-90
2023/04/08 04:55:12;;;;;;;31.77;23.77;;;5.50;90.90;;;;;;4995186;28;20185;-90
2023/04/08 04:57:37;;;;;;;41.33;27.90;;;5.50;90.90;;;;;;4995002;28;20206;-90
2023/04/08 05:00:03;;;;;;;43.80;29.87;;;5.50;91.00;;;;;;4995607;28;20188;-90
2023/04/08 05:02:29;;;;;;;35.37;20.33;;;5.50;91.00;;;;;;4995105;28;20224;-90
2023/04/08 05:05:10;;;;;;;43.20;26.73;;;5.50;91.00;;;;;;4995332;28;20229;-90
2023/04/08 05:07:36;;;;;;;43.60;29.57;;;5.50;91.10;;;;;;4995219;28;20271;-90
2023/04/08 05:10:03;;;;;;;48.40;29.87;;;5.50;91.10;;;;;;4994501;28;20549;-90
2023/04/08 05:12:29;;;;;;;46.93;31.17;;;5.50;91.20;;;;;;4996236;28;20193;-90
2023/04/08 05:14:54;;;;;;;42.83;27.10;;;5.50;91.20;;;;;;4994809;28;20197;-90
2023/04/08 05:17:20;;;;;;;50.07;31.93;;;5.50;91.30;;;;;;4994781;28;20201;-90
2023/04/08 05:19:45;;;;;;;44.43;30.23;;;5.50;91.30;;;;;;4994801;28;20225;-90
2023/04/08 05:22:11;;;;;;;39.17;26.63;;;5.50;91.40;;;;;;4994651;28;20200;-90
2023/04/08 05:24:36;;;;;;;45.40;28.00;;;5.50;91.40;;;;;;4994608;28;20176;-90
2023/04/08 05:27:02;;;;;;;40.40;24.93;;;5.40;91.30;;;;;;4995758;28;20175;-90
2023/04/08 05:29:27;;;;;;;35.43;23.17;;;5.40;91.30;;;;;;4994608;28;20203;-90
2023/04/08 05:31:53;;;;;;;35.30;22.40;;;5.40;91.40;;;;;;4994736;28;20202;-90
2023/04/08 05:34:21;;;;;;;40.63;25.20;;;5.40;91.40;;;;;;4994374;28;20184;-90
2023/04/08 05:36:50;;;;;;;34.70;23.43;;;5.30;91.50;;;;;;4994372;28;20664;-90
2023/04/08 05:39:17;;;;;;;40.27;24.43;;;5.30;91.50;;;;;;4994416;28;20295;-90
2023/04/08 05:41:43;;;;;;;33.70;22.40;;;5.30;91.60;;;;;;4994316;28;20719;-90
2023/04/08 05:44:09;;;;;;;38.37;26.03;;;5.30;91.70;;;;;;4994320;28;20178;-89
2023/04/08 05:46:34;;;;;;;44.30;25.57;;;5.30;91.80;;;;;;4994544;28;20544;-90
2023/04/08 05:49:00;;;;;;;35.50;26.37;;;5.30;91.80;;;;;;4996007;28;20176;-90
2023/04/08 05:51:26;;;;;;;38.17;24.03;;;5.30;91.90;;;;;;4994207;28;20781;-90
2023/04/08 05:53:52;;;;;;;36.00;22.53;;;5.30;92.00;;;;;;4994156;28;20271;-90
2023/04/08 05:56:17;;;;;;;46.53;25.90;;;5.30;92.20;;;;;;4994031;28;20178;-90
2023/04/08 05:58:43;;;;;;;40.13;24.57;;;5.30;92.30;;;;;;4994083;28;20209;-90
2023/04/08 06:01:09;;;;;;;44.47;28.43;;;5.30;92.40;;;;;;4995286;28;20205;-90
2023/04/08 06:03:34;;;;;;;51.23;30.43;;;5.30;92.50;;;;;;4995264;28;20180;-90
2023/04/08 06:06:00;;;;;;;55.23;31.63;;;5.20;92.50;;;;;;4993864;28;20170;-90
2023/04/08 06:08:26;;;;;;;47.03;30.23;;;5.30;92.60;;;;;;4993927;28;20176;-90
2023/04/08 06:10:51;;;;;;;45.27;28.27;;;5.30;92.60;;;;;;4993646;28;20207;-90
2023/04/08 06:13:19;;;;;;;42.70;28.03;;;5.30;92.60;;;;;;4993812;28;20606;-90
2023/04/08 06:15:44;;;;;;;45.23;28.57;;;5.30;92.70;;;;;;4994516;28;20229;-90
2023/04/08 06:18:10;;;;;;;50.00;29.27;;;5.30;92.70;;;;;;4993505;28;20205;-90
2023/04/08 06:20:35;;;;;;;50.90;30.13;;;5.20;92.70;;;;;;4993682;28;20558;-90
2023/04/08 06:23:01;;;;;;;50.97;28.97;;;5.20;92.80;;;;;;4992963;28;20639;-90
2023/04/08 06:25:26;;;;;;;52.27;30.70;;;5.30;92.80;;;;;;4993511;28;20639;-90
2023/04/08 06:27:52;;;;;;;61.03;32.17;;;5.30;92.90;;;;;;4994611;28;20182;-90
2023/04/08 06:30:17;;;;;;;57.07;30.73;;;5.30;92.90;;;;;;4994971;28;20200;-90
2023/04/08 06:32:46;;;;;;;57.47;28.87;;;5.30;93.00;;;;;;4993491;28;20215;-90
2023/04/08 06:35:11;;;;;;;56.50;31.27;;;5.30;93.00;;;;;;4993347;28;20208;-90
2023/04/08 06:37:37;;;;;;;47.33;28.70;;;5.30;93.00;;;;;;4993275;28;20677;-89
2023/04/08 06:40:04;;;;;;;50.93;30.00;;;5.30;93.00;;;;;;4994484;28;20174;-90
2023/04/08 06:42:30;;;;;;;46.87;26.53;;;5.20;93.00;;;;;;4993048;28;20250;-90
2023/04/08 06:44:56;;;;;;;51.80;29.00;;;5.30;93.10;;;;;;4993330;28;20176;-90
2023/04/08 06:47:22;;;;;;;51.70;31.83;;;5.20;93.10;;;;;;4994389;28;20176;-90
2023/04/08 06:49:48;;;;;;;52.53;32.77;;;5.30;93.10;;;;;;4993094;28;20182;-90
2023/04/08 06:52:13;;;;;;;48.10;28.03;;;5.30;93.10;;;;;;4992918;28;20207;-90
2023/04/08 06:54:39;;;;;;;44.77;26.60;;;5.30;93.20;;;;;;4994205;28;20659;-90
2023/04/08 06:57:05;;;;;;;46.03;30.30;;;5.30;93.10;;;;;;4992870;28;20177;-90
2023/04/08 06:59:31;;;;;;;53.40;32.73;;;5.40;93.10;;;;;;4992937;28;20174;-90
2023/04/08 07:01:57;;;;;;;54.30;30.80;;;5.40;93.00;;;;;;4992720;28;20276;-90
2023/04/08 07:04:22;;;;;;;55.23;31.10;;;5.50;93.00;;;;;;4992841;28;20176;-90
2023/04/08 07:06:48;;;;;;;43.17;25.40;;;5.50;93.00;;;;;;4992836;28;20180;-90
2023/04/08 07:09:13;;;;;;;38.33;26.33;;;5.50;93.00;;;;;;4992853;28;20181;-90
2023/04/08 07:11:39;;;;;;;48.47;26.53;;;5.50;92.80;;;;;;4993913;28;20275;-90
2023/04/08 07:14:04;;;;;;;48.70;28.67;;;5.50;92.70;;;;;;4992768;28;20235;-90
2023/04/08 07:16:30;;;;;;;52.47;31.90;;;5.50;92.70;;;;;;4995592;28;20174;-89
2023/04/08 07:18:55;;;;;;;52.50;31.67;;;5.50;92.60;;;;;;4992677;28;20218;-89
2023/04/08 07:21:21;;;;;;;47.17;30.43;;;5.50;92.60;;;;;;4992576;28;20252;-89
2023/04/08 07:23:46;;;;;;;55.20;30.83;;;5.50;92.60;;;;;;4993018;28;20185;-89
2023/04/08 07:26:12;;;;;;;61.27;32.37;;;5.50;92.60;;;;;;4993575;28;20552;-89
2023/04/08 07:28:38;;;;;;;53.83;32.37;;;5.50;92.70;;;;;;4993969;28;20334;-90
2023/04/08 07:31:14;;;;;;;48.33;29.30;;;5.50;92.70;;;;;;4994816;28;20204;-91
2023/04/08 07:33:40;;;;;;;46.20;28.10;;;5.50;92.80;;;;;;5002268;28;20191;-91
2023/04/08 07:36:07;;;;;;;49.37;30.17;;;5.50;92.80;;;;;;5004652;28;20251;-91
2023/04/08 07:38:33;;;;;;;42.53;26.03;;;5.50;92.80;;;;;;5004967;28;20223;-90
2023/04/08 07:40:58;;;;;;;51.43;31.03;;;5.50;92.80;;;;;;5000618;28;20220;-91
2023/04/08 07:43:24;;;;;;;49.40;30.37;;;5.50;92.80;;;;;;4997916;28;20328;-90
2023/04/08 07:45:50;;;;;;;46.43;29.07;;;5.60;92.80;;;;;;4998063;28;20176;-91
2023/04/08 07:48:15;;;;;;;50.77;31.33;;;5.60;92.80;;;;;;4999651;28;20184;-91
2023/04/08 07:50:41;;;;;;;60.97;32.93;;;5.60;92.80;;;;;;4999425;28;20180;-91
2023/04/08 07:53:07;;;;;;;54.37;31.67;;;5.60;92.80;;;;;;4997278;28;20196;-91
2023/04/08 07:55:33;;;;;;;42.97;27.20;;;5.60;92.80;;;;;;4997806;28;20166;-90
2023/04/08 07:58:00;;;;;;;45.87;29.10;;;5.60;92.80;;;;;;4996934;28;20287;-91
2023/04/08 08:00:26;;;;;;;48.43;30.10;;;5.60;92.70;;;;;;4997847;28;20172;-90
2023/04/08 08:02:51;;;;;;;52.83;32.13;;;5.60;92.70;;;;;;4996878;28;20233;-91
2023/04/08 08:05:17;;;;;;;51.80;32.63;;;5.70;92.70;;;;;;4997947;28;20196;-91
2023/04/08 08:07:43;;;;;;;54.03;33.33;;;5.60;92.60;;;;;;4997756;28;20228;-91
2023/04/08 08:10:09;;;;;;;57.23;32.70;;;5.70;92.70;;;;;;4997752;28;20177;-91
2023/04/08 08:12:35;;;;;;;43.43;28.37;;;5.70;92.70;;;;;;4997854;28;20282;-91
2023/04/08 08:15:02;;;;;;;42.13;28.33;;;5.70;92.70;;;;;;4997944;28;20216;-90
2023/04/08 08:17:29;;;;;;;44.07;28.57;;;5.70;92.60;;;;;;4996596;28;20212;-91
2023/04/08 08:19:55;;;;;;;41.00;27.23;;;5.80;92.60;;;;;;4998009;28;20649;-90
2023/04/08 08:22:21;;;;;;;42.27;30.10;;;5.70;92.40;;;;;;4997498;28;20200;-91
2023/04/08 08:24:47;;;;;;;42.40;31.50;;;5.70;92.40;;;;;;4996700;28;20174;-91
2023/04/08 08:27:12;;;;;;;46.00;31.07;;;5.70;92.40;;;;;;4997815;28;20177;-91
2023/04/08 08:29:38;;;;;;;48.63;30.77;;;5.80;92.40;;;;;;4997953;28;20203;-90
2023/04/08 08:32:04;;;;;;;37.40;24.53;;;5.70;92.30;;;;;;4998232;28;20194;-90
2023/04/08 08:34:30;;;;;;;40.07;27.67;;;5.70;92.30;;;;;;4997117;28;20192;-90
2023/04/08 08:36:56;;;;;;;34.60;24.20;;;5.80;92.40;;;;;;4995810;28;20180;-90
2023/04/08 08:39:21;;;;;;;40.63;23.63;;;5.80;92.20;;;;;;5002683;28;20202;-90
2023/04/08 08:41:47;;;;;;;35.30;24.27;;;5.80;92.10;;;;;;4998795;28;20216;-91
2023/04/08 08:44:13;;;;;;;38.67;27.63;;;5.80;92.00;;;;;;4995662;28;20176;-91
2023/04/08 08:46:47;;;;;;;41.07;25.83;;;5.80;92.00;;;;;;4997204;28;20206;-90
2023/04/08 08:49:13;;;;;;;35.73;26.77;;;5.80;92.00;;;;;;4996694;28;20180;-91
2023/04/08 08:51:40;;;;;;;40.67;27.53;;;5.80;92.00;;;;;;4997342;28;20302;-91
2023/04/08 08:54:07;;;;;;;41.10;26.43;;;5.80;92.00;;;;;;4998600;28;20648;-91
2023/04/08 08:56:33;;;;;;;49.37;28.30;;;5.90;92.00;;;;;;4996864;28;20189;-91
2023/04/08 08:58:58;;;;;;;53.17;31.93;;;6.00;92.10;;;;;;4997600;28;20202;-91
2023/04/08 09:01:36;;;;;;;54.67;34.97;;;6.10;92.00;;;;;;4998922;28;20200;-90
2023/04/08 09:04:10;;;;;;;47.10;32.50;;;6.00;91.80;;;;;;4999896;28;20149;-90
2023/04/08 09:06:36;;;;;;;51.60;35.23;;;6.10;91.80;;;;;;4997442;28;20179;-91
2023/04/08 09:09:09;;;;;;;53.50;31.47;;;6.10;91.70;;;;;;4999122;28;20668;-90
2023/04/08 09:11:45;;;;;;;51.23;33.30;;;6.10;91.70;;;;;;4998098;28;20299;-90
2023/04/08 09:14:36;;;;;;;45.87;32.83;;;6.10;91.80;;;;;;4999246;28;20173;-90
2023/04/08 09:17:02;;;;;;;56.80;33.73;;;6.00;91.80;;;;;;4995345;28;20204;-91
2023/04/08 09:19:27;;;;;;;51.27;34.40;;;6.10;92.00;;;;;;4998521;28;20268;-91
2023/04/08 09:22:07;;;;;;;51.97;33.73;;;6.20;91.90;;;;;;4999108;28;20186;-90
2023/04/08 09:24:33;;;;;;;49.13;31.57;;;6.20;92.00;;;;;;4999804;28;20256;-91
2023/04/08 09:26:59;;;;;;;50.67;30.43;;;6.20;91.80;;;;;;4998247;28;20182;-91
2023/04/08 09:29:26;;;;;;;48.27;30.70;;;6.00;91.70;;;;;;4998628;28;20231;-91
2023/04/08 09:31:59;;;;;;;43.53;29.53;;;6.10;91.80;;;;;;4997272;28;20208;-90
2023/04/08 09:34:27;;;;;;;40.67;27.10;;;6.20;91.80;;;;;;4998724;28;20181;-90
2023/04/08 09:36:53;;;;;;;45.40;30.43;;;6.20;91.70;;;;;;4996848;28;20181;-90
2023/04/08 09:39:19;;;;;;;47.50;27.43;;;6.30;91.60;;;;;;4995975;28;20204;-90
2023/04/08 09:41:48;;;;;;;40.40;27.00;;;6.30;91.40;;;;;;4996528;28;20209;-90
2023/04/08 09:44:18;;;;;;;40.93;28.37;;;6.40;91.20;;;;;;4995244;28;20181;-90
2023/04/08 09:46:58;;;;;;;47.77;28.87;;;6.50;91.10;;;;;;4995750;28;20170;-91
2023/04/08 09:49:43;;;;;;;35.57;25.10;;;6.70;91.00;;;;;;4995795;28;20198;-91
2023/04/08 09:52:33;;;;;;;42.70;26.47;;;6.70;90.60;;;;;;4997159;28;20204;-90
2023/04/08 09:55:04;;;;;;;41.43;27.03;;;6.80;90.30;;;;;;4996385;28;20170;-90
2023/04/08 09:57:54;;;;;;;36.77;26.57;;;6.80;90.10;;;;;;4994958;28;20202;-90
2023/04/08 10:00:23;;;;;;;45.67;28.27;;;6.90;89.90;;;;;;5002306;28;20173;-89
2023/04/08 10:03:05;;;;;;;38.70;27.27;;;6.90;89.80;;;;;;5002187;28;20190;-90
2023/04/08 10:05:35;;;;;;;38.67;27.43;;;6.90;89.50;;;;;;4998606;28;20166;-90
2023/04/08 10:08:00;;;;;;;38.13;26.37;;;7.00;89.70;;;;;;5000713;28;20170;-91
2023/04/08 10:10:26;;;;;;;39.97;26.27;;;7.10;89.50;;;;;;4997944;28;20269;-89
2023/04/08 10:12:52;;;;;;;39.90;26.70;;;7.20;89.20;;;;;;4995033;28;20625;-90
2023/04/08 10:15:24;;;;;;;34.23;25.60;;;7.10;88.70;;;;;;4998575;28;20185;-91
2023/04/08 10:17:51;;;;;;;38.40;26.70;;;7.20;88.70;;;;;;5001321;28;20206;-90
2023/04/08 10:20:41;;;;;;;43.00;27.37;;;7.20;88.50;;;;;;4997041;28;20193;-90
2023/04/08 10:23:09;;;;;;;37.07;27.20;;;7.20;88.30;;;;;;4993870;28;20193;-90
2023/04/08 10:25:43;;;;;;;36.90;26.77;;;7.30;88.30;;;;;;4995040;28;20162;-90
2023/04/08 10:28:12;;;;;;;37.03;29.13;;;7.30;88.00;;;;;;4994742;28;20177;-90
2023/04/08 10:30:41;;;;;;;42.77;27.97;;;7.30;87.70;;;;;;4994575;28;20170;-90
2023/04/08 10:33:15;;;;;;;37.23;28.00;;;7.30;87.70;;;;;;4995224;28;20194;-90
2023/04/08 10:35:59;;;;;;;39.53;28.17;;;7.30;87.50;;;;;;4994765;28;20170;-90
2023/04/08 10:38:24;;;;;;;33.43;24.90;;;7.40;87.60;;;;;;4993760;28;20190;-90
2023/04/08 10:40:51;;;;;;;41.40;25.63;;;7.50;87.70;;;;;;4993330;28;20193;-90
2023/04/08 10:43:17;;;;;;;32.53;23.97;;;7.50;87.50;;;;;;4993715;28;20169;-90
2023/04/08 10:45:44;;;;;;;32.57;25.10;;;7.40;87.40;;;;;;4993783;28;20563;-89
2023/04/08 10:48:17;;;;;;;31.87;23.50;;;7.40;87.40;;;;;;4994637;28;20205;-88
2023/04/08 10:50:59;;;;;;;38.47;27.27;;;7.50;87.50;;;;;;4993451;28;20162;-87
2023/04/08 10:53:26;;;;;;;50.43;29.00;;;7.70;87.80;;;;;;4993067;28;20660;-89
2023/04/08 10:55:51;;;;;;;44.67;29.63;;;7.70;87.80;;;;;;4994878;28;20205;-89
2023/04/08 10:58:17;;;;;;;38.23;24.77;;;7.60;87.30;;;;;;4996868;28;20205;-90
2023/04/08 11:00:43;;;;;;;44.20;31.53;;;7.70;87.30;;;;;;5000523;28;20171;-90
2023/04/08 11:03:10;;;;;;;46.07;31.43;;;7.60;87.30;;;;;;4994137;28;20644;-89
2023/04/08 11:05:37;;;;;;;46.20;32.57;;;7.70;87.50;;;;;;4999212;28;20530;-90
2023/04/08 11:08:03;;;;;;;64.23;36.03;;;7.60;87.30;;;;;;4998570;28;20233;-89
2023/04/08 11:10:29;;;;;;;49.63;31.87;;;7.70;87.50;;;;;;4994014;28;20663;-89
2023/04/08 11:12:55;;;;;;;38.20;29.63;;;7.70;87.20;;;;;;4994700;28;20213;-89
2023/04/08 11:15:22;;;;;;;38.17;25.60;;;7.70;87.20;;;;;;4995262;28;20170;-89
2023/04/08 11:17:48;;;;;;;39.43;28.73;;;7.60;86.80;;;;;;4993194;28;20201;-89
2023/04/08 11:20:14;;;;;;;32.27;24.60;;;7.60;87.10;;;;;;4993970;28;20546;-89
2023/04/08 11:22:40;;;;;;;43.63;30.07;;;7.70;87.50;;;;;;4994125;28;20204;-89
2023/04/08 11:25:09;;;;;;;38.93;27.33;;;7.60;87.30;;;;;;4992924;28;20186;-88
2023/04/08 11:27:36;;;;;;;36.13;27.53;;;7.70;87.20;;;;;;4993887;28;20189;-91
2023/04/08 11:30:03;;;;;;;35.37;26.53;;;7.60;87.10;;;;;;4993527;28;20181;-89
2023/04/08 11:32:30;;;;;;;34.17;25.37;;;7.80;87.50;;;;;;4993091;28;20579;-90
2023/04/08 11:34:55;;;;;;;35.57;24.50;;;7.80;87.20;;;;;;4995400;28;20694;-91
2023/04/08 11:37:24;;;;;;;32.07;25.50;;;7.70;87.20;;;;;;4996249;28;20182;-90
2023/04/08 11:39:50;;;;;;;33.10;26.43;;;7.80;87.50;;;;;;4995746;28;20649;-90
2023/04/08 11:42:30;;;;;;;32.77;23.53;;;7.70;87.40;;;;;;5001805;28;20222;-91
2023/04/08 11:44:56;;;;;;;34.07;24.77;;;7.80;87.30;;;;;;4993575;28;20178;-90
2023/04/08 11:47:29;;;;;;;29.33;24.30;;;7.80;87.40;;;;;;4994286;28;20174;-89
2023/04/08 11:49:55;;;;;;;29.60;21.93;;;7.70;87.10;;;;;;4993901;28;20158;-89
2023/04/08 11:52:21;;;;;;;29.47;24.07;;;7.80;87.30;;;;;;4992812;28;20724;-90
2023/04/08 11:54:47;;;;;;;28.00;23.03;;;7.80;87.20;;;;;;4992680;28;20189;-89
2023/04/08 11:57:14;;;;;;;33.53;24.57;;;7.80;87.20;;;;;;4993741;28;20209;-89
2023/04/08 11:59:40;;;;;;;31.37;24.17;;;7.80;87.10;;;;;;4993889;28;20198;-91
2023/04/08 12:02:09;;;;;;;32.23;23.50;;;7.70;87.00;;;;;;4995824;28;20206;-92
2023/04/08 12:04:34;;;;;;;30.60;25.17;;;7.70;87.10;;;;;;4999705;28;20150;-92
2023/04/08 12:07:00;;;;;;;27.27;21.07;;;7.70;87.20;;;;;;4994002;28;20719;-90
2023/04/08 12:09:27;;;;;;;28.83;21.73;;;7.70;87.40;;;;;;4992444;28;20182;-88
2023/04/08 12:11:52;;;;;;;28.50;23.20;;;7.70;87.50;;;;;;4992682;28;20198;-90
2023/04/08 12:14:18;;;;;;;30.97;22.73;;;7.90;87.40;;;;;;4993493;28;20174;-89
2023/04/08 12:16:43;;;;;;;29.80;20.83;;;7.90;87.40;;;;;;4993979;28;20656;-89
2023/04/08 12:19:09;;;;;;;28.07;21.50;;;8.00;87.10;;;;;;4992615;28;20620;-89
2023/04/08 12:21:35;;;;;;;33.77;23.80;;;8.00;86.80;;;;;;4996658;28;20194;-89
2023/04/08 12:24:00;;;;;;;39.10;26.27;;;7.90;86.70;;;;;;4997338;28;20682;-90
2023/04/08 12:26:26;;;;;;;27.17;20.77;;;8.00;86.80;;;;;;4997038;28;20257;-90
2023/04/08 12:28:51;;;;;;;34.50;23.47;;;8.10;86.90;;;;;;4997823;28;20182;-89
2023/04/08 12:31:17;;;;;;;37.43;25.70;;;7.90;86.60;;;;;;4995478;28;20249;-89
2023/04/08 12:33:42;;;;;;;29.50;22.80;;;8.00;86.80;;;;;;4996831;28;20653;-89
2023/04/08 12:36:08;;;;;;;31.03;24.63;;;8.00;86.80;;;;;;4996779;28;20178;-89